createdAt,value
2019-05-10T00:00:13.661Z,6.20
2019-05-10T00:05:26.505Z,6.33
2019-05-10T00:10:20.370Z,7.07
2019-05-10T00:15:16.449Z,6.37
2019-05-10T00:20:10.510Z,6.07
2019-05-10T00:25:05.464Z,6.00
2019-05-10T00:29:59.513Z,6.37
2019-05-10T00:34:53.474Z,6.40
2019-05-10T00:39:47.431Z,6.53
2019-05-10T00:44:41.543Z,6.20
2019-05-10T00:49:35.497Z,6.00
2019-05-10T00:54:29.464Z,5.70
2019-05-10T00:59:23.423Z,5.20
2019-05-10T01:04:17.396Z,5.30
2019-05-10T01:09:12.879Z,5.17
2019-05-10T01:14:06.845Z,5.47
2019-05-10T01:19:00.833Z,4.83
2019-05-10T01:23:54.790Z,5.30
2019-05-10T01:28:48.817Z,5.17
2019-05-10T01:33:42.736Z,5.47
2019-05-10T01:38:36.802Z,4.70
2019-05-10T01:43:30.761Z,5.13
2019-05-10T01:48:24.771Z,4.90
2019-05-10T01:53:18.717Z,5.40
2019-05-10T01:58:12.676Z,5.47
2019-05-10T02:03:06.637Z,5.40
2019-05-10T02:08:00.635Z,5.53
2019-05-10T02:12:54.584Z,5.37
2019-05-10T02:17:48.548Z,5.50
2019-05-10T02:22:42.564Z,5.67
2019-05-10T02:27:36.499Z,5.60
2019-05-10T02:32:30.447Z,5.40
2019-05-10T02:37:24.430Z,5.83
2019-05-10T02:42:18.422Z,5.63
2019-05-10T02:47:12.485Z,5.57
2019-05-10T02:52:06.450Z,5.70
2019-05-10T02:57:01.012Z,6.03
2019-05-10T03:01:55.489Z,5.73
2019-05-10T03:06:53.313Z,5.40
2019-05-10T03:11:48.267Z,5.70
2019-05-10T03:16:45.029Z,6.30
2019-05-10T03:21:40.901Z,5.77
2019-05-10T03:26:50.294Z,5.83
2019-05-10T03:31:32.143Z,5.80
2019-05-10T03:36:26.102Z,6.40
2019-05-10T03:41:20.246Z,6.93
2019-05-10T03:46:14.183Z,9.10
2019-05-10T03:51:08.324Z,9.20
2019-05-10T03:56:02.509Z,9.10
2019-05-10T04:00:56.442Z,10.30
2019-05-10T04:05:50.473Z,10.57
2019-05-10T04:10:44.732Z,10.73
2019-05-10T04:15:38.691Z,10.40
2019-05-10T04:20:32.669Z,11.33
2019-05-10T04:25:26.649Z,11.00
2019-05-10T04:30:20.704Z,10.13
2019-05-10T04:35:14.793Z,11.00
2019-05-10T04:40:08.944Z,11.47
2019-05-10T04:45:04.524Z,11.27
2019-05-10T04:49:58.489Z,12.27
2019-05-10T04:54:52.464Z,11.53
2019-05-10T04:59:46.434Z,12.83
2019-05-10T05:04:40.437Z,12.93
2019-05-10T05:09:34.491Z,13.23
2019-05-10T05:14:28.460Z,13.57
2019-05-10T05:19:22.458Z,14.17
2019-05-10T05:24:16.826Z,13.50
2019-05-10T05:29:12.337Z,13.80
2019-05-10T05:34:06.427Z,13.80
2019-05-10T05:39:00.468Z,13.37
2019-05-10T05:43:54.526Z,13.93
2019-05-10T05:48:51.414Z,14.77
2019-05-10T05:53:44.783Z,13.70
2019-05-10T05:58:44.688Z,15.03
2019-05-10T06:03:34.799Z,14.13
2019-05-10T06:08:30.276Z,16.33
2019-05-10T06:13:30.454Z,16.37
2019-05-10T06:18:20.257Z,14.67
2019-05-10T06:23:14.250Z,14.67
2019-05-10T06:28:25.153Z,14.97
2019-05-10T06:33:12.533Z,14.70
2019-05-10T06:38:00.057Z,17.17
2019-05-10T06:42:54.164Z,16.07
2019-05-10T06:47:50.344Z,14.80
2019-05-10T06:52:44.125Z,15.70
2019-05-10T06:57:38.073Z,15.47
2019-05-10T07:02:32.610Z,15.97
2019-05-10T07:07:43.197Z,16.97
2019-05-10T07:12:22.717Z,16.60
2019-05-10T07:17:16.675Z,15.00
2019-05-10T07:22:10.765Z,16.40
2019-05-10T07:27:05.784Z,18.07
2019-05-10T07:32:00.100Z,14.20
2019-05-10T07:36:54.067Z,13.57
2019-05-10T07:41:48.024Z,10.67
2019-05-10T07:46:46.591Z,9.60
2019-05-10T07:51:37.920Z,10.37
2019-05-10T07:56:32.041Z,10.00
2019-05-10T08:01:32.475Z,8.00
2019-05-10T08:06:21.985Z,8.53
2019-05-10T08:11:15.972Z,9.47
2019-05-10T08:16:16.786Z,9.57
2019-05-10T08:21:20.990Z,9.00
2019-05-10T08:26:04.458Z,9.80
2019-05-10T08:30:58.998Z,10.53
2019-05-10T08:36:00.803Z,9.80
2019-05-10T08:40:49.225Z,10.97
2019-05-10T08:45:44.866Z,13.27
2019-05-10T08:50:49.308Z,13.43
2019-05-10T08:55:34.961Z,14.13
2019-05-10T09:00:45.142Z,14.40
2019-05-10T09:05:29.001Z,14.73
2019-05-10T09:10:22.050Z,14.60
2019-05-10T09:15:16.269Z,14.73
2019-05-10T09:20:11.981Z,14.90
2019-05-10T09:25:07.004Z,14.97
2019-05-10T09:30:02.978Z,14.60
2019-05-10T09:34:59.845Z,13.83
2019-05-10T09:40:04.038Z,12.83
2019-05-10T09:44:48.974Z,11.97
2019-05-10T09:49:46.907Z,11.97
2019-05-10T09:54:38.826Z,12.10
2019-05-10T09:59:32.800Z,13.27
2019-05-10T10:04:28.160Z,12.50
2019-05-10T10:09:24.528Z,12.10
2019-05-10T10:14:18.206Z,11.80
2019-05-10T10:19:12.175Z,13.03
2019-05-10T10:24:15.513Z,13.77
2019-05-10T10:29:02.311Z,13.20
2019-05-10T10:33:59.462Z,13.23
2019-05-10T10:38:52.217Z,12.37
2019-05-10T10:43:48.445Z,11.60
2019-05-10T10:48:43.498Z,11.80
2019-05-10T10:53:38.281Z,12.97
2019-05-10T10:58:32.324Z,11.87
2019-05-10T11:03:30.356Z,11.60
2019-05-10T11:08:22.277Z,11.00
2019-05-10T11:13:20.501Z,10.40
2019-05-10T11:18:12.131Z,10.17
2019-05-10T11:23:06.102Z,11.40
2019-05-10T11:28:01.750Z,11.40
2019-05-10T11:32:56.118Z,11.00
2019-05-10T11:37:50.840Z,12.57
2019-05-10T11:42:47.441Z,11.07
2019-05-10T11:47:41.131Z,11.67
2019-05-10T11:52:36.608Z,8.50
2019-05-10T11:57:32.898Z,9.83
2019-05-10T12:02:37.921Z,9.93
2019-05-10T12:07:27.380Z,8.03
2019-05-10T12:12:30.523Z,8.80
2019-05-10T12:17:14.565Z,7.33
2019-05-10T12:22:08.596Z,6.83
2019-05-10T12:27:25.728Z,5.95
2019-05-10T12:31:58.668Z,5.20
2019-05-10T12:36:52.757Z,5.62
2019-05-10T12:41:49.948Z,5.15
2019-05-10T12:46:44.452Z,4.05
2019-05-10T12:51:40.897Z,3.60
2019-05-10T12:56:34.940Z,3.65
2019-05-10T13:01:31.789Z,3.33
2019-05-10T13:06:26.338Z,4.22
2019-05-10T13:11:25.329Z,3.70
2019-05-10T13:16:16.247Z,3.67
2019-05-10T13:21:19.492Z,2.92
2019-05-10T13:26:06.177Z,2.90
2019-05-10T13:31:05.691Z,2.50
2019-05-10T13:35:57.047Z,3.10
2019-05-10T13:40:52.024Z,3.42
2019-05-10T13:45:46.101Z,3.10
2019-05-10T13:50:40.080Z,3.17
2019-05-10T13:55:34.046Z,3.45
2019-05-10T14:00:34.154Z,3.37
2019-05-10T14:05:24.210Z,3.30
2019-05-10T14:10:23.628Z,3.33
2019-05-10T14:15:14.565Z,3.55
2019-05-10T14:20:19.571Z,3.37
2019-05-10T14:25:05.614Z,4.12
2019-05-10T14:29:59.623Z,3.72
2019-05-10T14:34:53.642Z,3.90
2019-05-10T14:39:47.631Z,4.00
2019-05-10T14:44:41.647Z,4.35
2019-05-10T14:49:35.668Z,4.60
2019-05-10T14:54:42.722Z,4.70
2019-05-10T14:59:25.865Z,4.42
2019-05-10T15:04:43.691Z,4.80
2019-05-10T15:09:21.722Z,4.85
2019-05-10T15:14:11.883Z,4.87
2019-05-10T15:19:05.995Z,5.70
2019-05-10T15:24:00.828Z,5.00
2019-05-10T15:28:55.941Z,5.00
2019-05-10T15:33:49.923Z,5.40
2019-05-10T15:38:50.118Z,5.12
2019-05-10T15:43:40.055Z,5.35
2019-05-10T15:48:36.646Z,5.30
2019-05-10T15:53:30.101Z,6.15
2019-05-10T15:58:24.065Z,6.70
2019-05-10T16:03:18.265Z,5.53
2019-05-10T16:08:13.767Z,5.42
2019-05-10T16:13:07.896Z,5.40
2019-05-10T16:18:02.029Z,5.15
2019-05-10T16:22:56.055Z,6.03
2019-05-10T16:27:50.060Z,5.92
2019-05-10T16:32:45.950Z,8.40
2019-05-10T16:37:39.940Z,8.57
2019-05-10T16:42:35.810Z,9.33
2019-05-10T16:47:29.824Z,10.70
2019-05-10T16:52:26.169Z,10.08
2019-05-10T16:57:19.670Z,15.03
2019-05-10T17:02:13.747Z,12.50
2019-05-10T17:07:12.865Z,13.07
2019-05-10T17:12:03.920Z,11.93
2019-05-10T17:16:59.797Z,12.50
2019-05-10T17:21:53.870Z,12.37
2019-05-10T17:26:47.841Z,12.00
2019-05-10T17:31:45.775Z,11.10
2019-05-10T17:36:37.711Z,11.67
2019-05-10T17:41:31.817Z,10.80
2019-05-10T17:46:25.869Z,10.40
2019-05-10T17:51:19.978Z,10.60
2019-05-10T17:56:13.950Z,10.28
2019-05-10T18:01:08.065Z,9.87
2019-05-10T18:06:02.728Z,9.27
2019-05-10T18:11:03.385Z,9.90
2019-05-10T18:15:52.710Z,9.68
2019-05-10T18:20:46.675Z,11.07
2019-05-10T18:25:40.724Z,11.70
2019-05-10T18:30:34.689Z,11.37
2019-05-10T18:35:28.673Z,11.50
2019-05-10T18:40:25.152Z,11.63
2019-05-10T18:45:23.237Z,11.60
2019-05-10T18:50:14.771Z,11.87
2019-05-10T18:55:08.938Z,12.27
2019-05-10T19:00:05.093Z,14.30
2019-05-10T19:04:59.233Z,16.17
2019-05-10T19:09:53.367Z,17.13
2019-05-10T19:14:47.347Z,17.73
2019-05-10T19:19:42.237Z,14.13
2019-05-10T19:24:36.602Z,14.27
2019-05-10T19:29:30.578Z,14.27
2019-05-10T19:34:24.663Z,13.90
2019-05-10T19:39:18.671Z,13.50
2019-05-10T19:44:12.668Z,12.90
2019-05-10T19:49:12.935Z,12.67
2019-05-10T19:54:03.029Z,13.13
2019-05-10T19:58:57.195Z,14.20
2019-05-10T20:03:51.264Z,13.97
2019-05-10T20:08:45.288Z,13.73
2019-05-10T20:13:39.371Z,13.50
2019-05-10T20:18:33.410Z,13.97
2019-05-10T20:23:27.394Z,15.17
2019-05-10T20:28:21.875Z,14.77
2019-05-10T20:33:15.881Z,13.97
2019-05-10T20:38:09.988Z,14.60
2019-05-10T20:43:04.112Z,14.77
2019-05-10T20:47:58.211Z,15.73
2019-05-10T20:52:52.173Z,14.50
2019-05-10T20:57:46.189Z,14.83
2019-05-10T21:02:40.262Z,14.00
2019-05-10T21:07:34.532Z,13.90
2019-05-10T21:12:28.529Z,14.10
2019-05-10T21:17:22.504Z,13.97
2019-05-10T21:22:16.619Z,14.80
2019-05-10T21:27:10.597Z,14.80
2019-05-10T21:32:04.695Z,15.27
2019-05-10T21:36:58.706Z,15.60
2019-05-10T21:41:52.916Z,14.93
2019-05-10T21:46:46.908Z,14.50
2019-05-10T21:51:40.903Z,14.37
2019-05-10T21:56:35.858Z,14.87
2019-05-10T22:01:30.746Z,15.63
2019-05-10T22:06:24.729Z,14.53
2019-05-10T22:11:18.735Z,14.63
2019-05-10T22:16:12.812Z,14.50
2019-05-10T22:21:06.919Z,15.37
2019-05-10T22:26:00.902Z,14.17
2019-05-10T22:30:54.858Z,14.23
2019-05-10T22:35:49.001Z,14.00
2019-05-10T22:40:43.158Z,14.33
2019-05-10T22:45:37.099Z,13.87
2019-05-10T22:50:31.117Z,18.17
2019-05-10T22:55:25.047Z,22.03
2019-05-10T23:00:19.907Z,15.83
2019-05-10T23:05:14.101Z,15.67
2019-05-10T23:10:08.397Z,14.73
2019-05-10T23:15:04.440Z,15.33
2019-05-10T23:19:58.545Z,16.27
2019-05-10T23:24:52.511Z,22.50
2019-05-10T23:29:46.575Z,16.90
2019-05-10T23:34:40.531Z,15.87
2019-05-10T23:39:40.970Z,16.00
2019-05-10T23:44:30.494Z,16.27
2019-05-10T23:49:24.515Z,16.50
2019-05-10T23:54:18.492Z,16.27
2019-05-10T23:59:12.561Z,15.53
